Time;durP1;ratioP1;P1;durP2;ratioP2;P2;SDS_P1;SDS_P2;PMS_P1;PMS_P2;Temp;Humidity;BMP_temperature;BMP_pressure;BME280_temperature;BME280_humidity;BME280_pressure;Samples;Min_cycle;Max_cycle;Signal;HPM_P1;HPM_P2
2022/03/19 00:01:56;;;;;;;9.00;2.67;;;0.80;71.00;;;;;;4174572;28;20040;-76
2022/03/19 00:03:57;;;;;;;11.98;2.95;;;0.80;71.30;;;;;;4203303;28;20623;-76
2022/03/19 00:05:57;;;;;;;11.30;2.25;;;0.80;71.50;;;;;;4204925;28;20035;-76
2022/03/19 00:07:59;;;;;;;12.50;2.80;;;0.80;71.70;;;;;;4186803;28;20294;-76
2022/03/19 00:10:00;;;;;;;9.43;2.53;;;0.80;72.00;;;;;;4166999;28;20083;-76
2022/03/19 00:12:01;;;;;;;10.15;2.80;;;0.80;72.10;;;;;;4203241;28;20032;-76
2022/03/19 00:14:02;;;;;;;11.65;2.65;;;0.90;72.10;;;;;;4205094;28;20432;-76
2022/03/19 00:16:03;;;;;;;14.95;2.78;;;0.90;71.80;;;;;;4204281;28;20032;-75
2022/03/19 00:18:04;;;;;;;7.18;2.20;;;0.80;71.40;;;;;;4202703;28;20109;-75
2022/03/19 00:20:05;;;;;;;11.02;2.40;;;0.80;71.20;;;;;;4186118;28;20035;-75
2022/03/19 00:22:06;;;;;;;10.45;2.70;;;0.80;71.20;;;;;;4204868;28;20051;-75
2022/03/19 00:24:07;;;;;;;8.75;2.72;;;0.70;70.90;;;;;;4186575;28;20782;-75
2022/03/19 00:26:08;;;;;;;11.18;3.15;;;0.70;70.80;;;;;;4187762;28;20032;-75
2022/03/19 00:28:09;;;;;;;7.97;2.67;;;0.60;70.90;;;;;;4201812;28;20084;-75
2022/03/19 00:30:10;;;;;;;7.53;2.42;;;0.60;71.00;;;;;;4204532;28;20031;-75
2022/03/19 00:32:11;;;;;;;10.95;2.25;;;0.50;71.00;;;;;;4185828;28;20123;-75
2022/03/19 00:34:11;;;;;;;11.93;2.97;;;0.50;71.60;;;;;;4187585;28;20485;-75
2022/03/19 00:36:12;;;;;;;11.25;2.70;;;0.50;72.30;;;;;;4184108;28;20036;-75
2022/03/19 00:38:13;;;;;;;14.52;2.45;;;0.40;72.80;;;;;;4185287;28;20055;-76
2022/03/19 00:40:15;;;;;;;8.98;3.15;;;0.40;72.80;;;;;;4205337;28;20131;-75
2022/03/19 00:42:15;;;;;;;7.53;2.40;;;0.50;73.00;;;;;;4186881;28;20071;-75
2022/03/19 00:44:17;;;;;;;11.10;2.38;;;0.50;73.10;;;;;;4201737;28;20466;-75
2022/03/19 00:46:19;;;;;;;12.02;2.45;;;0.50;72.90;;;;;;4175870;28;20064;-75
2022/03/19 00:48:19;;;;;;;9.15;2.70;;;0.50;72.60;;;;;;4204270;28;20028;-75
2022/03/19 00:50:20;;;;;;;12.25;2.97;;;0.50;72.40;;;;;;4200398;28;20043;-77
2022/03/19 00:52:20;;;;;;;9.77;2.65;;;0.50;72.30;;;;;;4170592;28;20029;-77
2022/03/19 00:54:21;;;;;;;12.38;2.83;;;0.40;71.90;;;;;;4202805;28;20055;-77
2022/03/19 00:56:21;;;;;;;18.38;2.75;;;0.40;71.70;;;;;;4206213;28;20028;-77
2022/03/19 00:58:22;;;;;;;11.00;2.38;;;0.40;71.80;;;;;;4201850;28;20043;-77
2022/03/19 01:00:26;;;;;;;9.48;2.13;;;0.40;71.80;;;;;;4204360;28;20851;-77
2022/03/19 01:02:27;;;;;;;8.38;2.50;;;0.40;72.10;;;;;;4202996;28;20043;-77
2022/03/19 01:04:28;;;;;;;13.63;2.60;;;0.40;72.30;;;;;;4190728;28;20521;-77
2022/03/19 01:06:29;;;;;;;6.28;2.97;;;0.40;72.40;;;;;;4182365;28;20075;-77
2022/03/19 01:08:30;;;;;;;9.70;2.35;;;0.40;72.10;;;;;;4200151;28;20066;-77
2022/03/19 01:10:30;;;;;;;15.25;2.45;;;0.40;71.80;;;;;;4201800;28;20370;-77
2022/03/19 01:12:31;;;;;;;7.70;2.20;;;0.30;71.60;;;;;;4206738;28;20520;-77
2022/03/19 01:14:32;;;;;;;6.97;2.17;;;0.30;71.40;;;;;;4206722;28;20024;-78
2022/03/19 01:16:32;;;;;;;8.23;2.95;;;0.20;71.20;;;;;;4204930;28;20028;-78
2022/03/19 01:18:33;;;;;;;6.95;2.40;;;0.20;71.00;;;;;;4203920;28;20028;-77
2022/03/19 01:20:34;;;;;;;6.93;1.90;;;0.20;71.00;;;;;;4201787;28;20048;-77
2022/03/19 01:22:34;;;;;;;9.00;2.53;;;0.10;71.00;;;;;;4206959;28;20105;-78
2022/03/19 01:24:35;;;;;;;11.27;2.42;;;0.00;70.90;;;;;;4190927;28;20052;-77
2022/03/19 01:26:36;;;;;;;13.75;2.67;;;0.00;71.00;;;;;;4190722;28;20122;-77
2022/03/19 01:28:37;;;;;;;10.57;2.03;;;0.00;71.20;;;;;;4187845;28;20543;-77
2022/03/19 01:30:37;;;;;;;14.65;2.10;;;0.00;72.10;;;;;;4189691;28;20020;-77
2022/03/19 01:32:38;;;;;;;7.50;1.83;;;0.00;71.60;;;;;;4186274;28;20942;-78
2022/03/19 01:34:39;;;;;;;10.20;2.53;;;0.00;71.90;;;;;;4200955;28;20479;-77
2022/03/19 01:36:40;;;;;;;17.98;2.58;;;0.00;72.10;;;;;;4205959;28;20385;-77
2022/03/19 01:38:40;;;;;;;6.82;1.95;;;0.00;72.30;;;;;;4205814;28;20593;-77
2022/03/19 01:40:41;;;;;;;9.35;2.40;;;0.00;72.20;;;;;;4179687;28;20032;-78
2022/03/19 01:42:43;;;;;;;12.35;2.30;;;0.00;72.20;;;;;;4188448;28;20494;-78
2022/03/19 01:44:44;;;;;;;9.25;1.77;;;0.00;72.10;;;;;;4171395;28;21170;-78
2022/03/19 01:47:01;;;;;;;12.85;2.20;;;0.00;72.00;;;;;;4188394;28;20045;-78
2022/03/19 01:49:02;;;;;;;5.53;2.17;;;0.00;72.00;;;;;;4188360;28;20032;-78
2022/03/19 01:51:03;;;;;;;9.02;2.33;;;0.00;72.00;;;;;;4203587;28;20393;-78
2022/03/19 01:53:03;;;;;;;15.23;2.50;;;0.00;71.80;;;;;;4207480;28;20024;-77
2022/03/19 01:55:05;;;;;;;8.50;2.45;;;-0.10;71.70;;;;;;4206684;28;20028;-78
2022/03/19 01:57:05;;;;;;;11.93;2.15;;;0.00;71.90;;;;;;4208350;28;20083;-77
2022/03/19 01:59:06;;;;;;;9.90;2.22;;;0.00;72.20;;;;;;4203987;28;20032;-77
2022/03/19 02:01:07;;;;;;;12.68;2.25;;;0.00;72.50;;;;;;4186597;28;20095;-77
2022/03/19 02:03:08;;;;;;;14.15;2.90;;;0.00;72.70;;;;;;4190217;28;20040;-77
2022/03/19 02:05:16;;;;;;;9.52;2.20;;;0.00;73.00;;;;;;4191371;28;20091;-77
2022/03/19 02:07:16;;;;;;;12.90;1.98;;;0.10;73.20;;;;;;4204796;28;20177;-77
2022/03/19 02:09:17;;;;;;;9.38;2.17;;;0.10;73.40;;;;;;4173241;28;20118;-77
2022/03/19 02:11:18;;;;;;;12.30;2.95;;;0.20;73.60;;;;;;4205238;28;20089;-77
2022/03/19 02:13:18;;;;;;;11.10;2.28;;;0.20;73.70;;;;;;4201737;28;20028;-77
2022/03/19 02:15:19;;;;;;;17.83;2.63;;;0.30;74.60;;;;;;4206837;28;20020;-77
2022/03/19 02:17:20;;;;;;;8.43;2.70;;;0.30;74.10;;;;;;4203857;28;20027;-77
2022/03/19 02:19:20;;;;;;;8.65;2.13;;;0.40;74.30;;;;;;4189899;28;20485;-77
2022/03/19 02:21:21;;;;;;;12.77;2.40;;;0.40;74.30;;;;;;4193225;28;20107;-75
2022/03/19 02:25:45;;;;;;;14.82;2.22;;;0.50;74.30;;;;;;4194446;28;20070;-77
2022/03/19 02:27:46;;;;;;;8.77;2.00;;;0.50;75.20;;;;;;4193283;28;20127;-77
2022/03/19 02:29:47;;;;;;;9.68;3.00;;;0.60;74.60;;;;;;4210810;28;21636;-77
2022/03/19 02:31:49;;;;;;;10.50;2.72;;;0.60;74.50;;;;;;4209619;28;20044;-77
2022/03/19 02:33:49;;;;;;;15.95;2.50;;;0.70;74.70;;;;;;4180234;28;20074;-78
2022/03/19 02:35:50;;;;;;;8.55;2.00;;;0.70;74.60;;;;;;4213543;28;20164;-77
2022/03/19 02:37:50;;;;;;;15.70;2.58;;;0.70;74.50;;;;;;4194422;28;20047;-78
2022/03/19 02:39:51;;;;;;;13.82;2.22;;;0.80;74.60;;;;;;4190931;28;20039;-77
2022/03/19 02:41:52;;;;;;;14.20;2.28;;;0.80;74.70;;;;;;4193974;28;20053;-77
2022/03/19 02:43:52;;;;;;;8.13;2.10;;;0.80;74.70;;;;;;4181684;28;20031;-78
2022/03/19 02:45:53;;;;;;;19.42;2.08;;;0.80;74.60;;;;;;4210165;28;20115;-78
2022/03/19 02:47:59;;;;;;;23.85;2.70;;;0.90;74.50;;;;;;4211509;28;20139;-78
2022/03/19 02:50:00;;;;;;;15.38;2.35;;;0.80;74.50;;;;;;4206769;28;20066;-78
2022/03/19 02:52:01;;;;;;;16.40;2.50;;;0.90;74.50;;;;;;4209111;28;20032;-78
2022/03/19 02:54:02;;;;;;;15.60;2.35;;;0.90;74.50;;;;;;4209984;28;20127;-78
2022/03/19 02:56:03;;;;;;;8.57;2.22;;;0.90;74.50;;;;;;4213259;28;20039;-77
2022/03/19 02:58:04;;;;;;;7.18;1.92;;;0.90;74.40;;;;;;4211053;28;20549;-77
2022/03/19 03:00:05;;;;;;;12.38;2.08;;;0.90;74.50;;;;;;4209378;28;20055;-77
2022/03/19 03:02:07;;;;;;;14.88;2.55;;;0.90;74.30;;;;;;4210401;28;20024;-77
2022/03/19 03:04:08;;;;;;;13.75;2.63;;;0.90;74.20;;;;;;4194838;28;20029;-78
2022/03/19 03:06:09;;;;;;;16.08;2.33;;;0.90;74.10;;;;;;4209447;28;20032;-77
2022/03/19 03:08:09;;;;;;;14.02;1.92;;;0.90;73.90;;;;;;4208487;28;20012;-78
2022/03/19 03:10:10;;;;;;;19.00;2.88;;;0.90;74.00;;;;;;4208349;28;20505;-78
2022/03/19 03:12:10;;;;;;;11.82;1.92;;;0.90;74.80;;;;;;4180124;28;20025;-77
2022/03/19 03:14:11;;;;;;;13.50;2.10;;;0.90;74.10;;;;;;4210061;28;20070;-78
2022/03/19 03:16:11;;;;;;;15.40;3.17;;;0.90;74.20;;;;;;4210795;28;20020;-78
2022/03/19 03:18:12;;;;;;;11.30;2.35;;;0.80;74.10;;;;;;4210361;28;20028;-78
2022/03/19 03:20:13;;;;;;;10.23;2.08;;;0.80;74.10;;;;;;4211269;28;20035;-77
2022/03/19 03:22:13;;;;;;;12.60;2.65;;;0.80;73.80;;;;;;4195601;28;20028;-78
2022/03/19 03:24:14;;;;;;;8.02;1.77;;;0.80;73.50;;;;;;4193388;28;20036;-77
2022/03/19 03:26:15;;;;;;;10.15;1.67;;;0.70;73.10;;;;;;4192105;28;20032;-77
2022/03/19 03:28:15;;;;;;;14.77;2.63;;;0.60;72.50;;;;;;4192599;28;20036;-78
2022/03/19 03:30:18;;;;;;;8.15;2.00;;;0.60;72.10;;;;;;4207976;28;20028;-78
2022/03/19 03:32:19;;;;;;;7.70;1.90;;;0.50;71.90;;;;;;4192434;28;20453;-77
2022/03/19 03:34:19;;;;;;;9.95;1.92;;;0.40;71.80;;;;;;4212013;28;20024;-77
2022/03/19 03:36:20;;;;;;;13.93;2.47;;;0.30;71.80;;;;;;4192702;28;20111;-77
2022/03/19 03:38:21;;;;;;;10.75;1.88;;;0.20;71.80;;;;;;4192183;28;20436;-77
2022/03/19 03:40:21;;;;;;;19.73;2.33;;;0.20;71.90;;;;;;4209027;28;20055;-78
2022/03/19 03:42:22;;;;;;;8.23;1.92;;;0.10;71.80;;;;;;4196066;28;20029;-78
2022/03/19 03:44:22;;;;;;;12.80;2.55;;;0.00;71.70;;;;;;4211081;28;20047;-77
2022/03/19 03:46:23;;;;;;;8.73;1.88;;;0.00;71.80;;;;;;4194282;28;20075;-78
2022/03/19 03:48:24;;;;;;;7.38;1.80;;;-0.10;71.80;;;;;;4193788;28;20062;-78
2022/03/19 03:50:24;;;;;;;12.23;2.22;;;-0.20;71.90;;;;;;4191976;28;20028;-77
2022/03/19 03:52:25;;;;;;;12.00;1.95;;;-0.30;72.10;;;;;;4192590;28;20039;-78
2022/03/19 03:54:26;;;;;;;7.63;1.73;;;-0.30;72.10;;;;;;4191355;28;20028;-77
2022/03/19 03:56:26;;;;;;;9.38;1.90;;;-0.30;72.20;;;;;;4193558;28;20036;-78
2022/03/19 03:58:27;;;;;;;10.77;1.85;;;-0.40;72.20;;;;;;4192224;28;20024;-78
2022/03/19 04:00:28;;;;;;;12.55;2.08;;;-0.50;72.30;;;;;;4192116;28;20382;-77
2022/03/19 04:02:28;;;;;;;9.43;1.95;;;-0.50;72.50;;;;;;4210124;28;20059;-77
2022/03/19 04:04:29;;;;;;;13.77;1.60;;;-0.50;72.60;;;;;;4181705;28;20032;-78
2022/03/19 04:06:29;;;;;;;10.40;2.13;;;-0.60;72.70;;;;;;4192912;28;20468;-77
2022/03/19 04:08:30;;;;;;;8.93;1.75;;;-0.60;73.10;;;;;;4207836;28;20432;-78
2022/03/19 04:10:31;;;;;;;7.60;2.03;;;-0.70;73.10;;;;;;4210228;28;20020;-77
2022/03/19 04:12:32;;;;;;;10.77;2.10;;;-0.70;73.40;;;;;;4197382;28;20087;-77
2022/03/19 04:14:32;;;;;;;9.57;2.28;;;-0.70;73.60;;;;;;4193796;28;20033;-77
2022/03/19 04:16:33;;;;;;;13.18;2.60;;;-0.80;73.70;;;;;;4177785;28;20024;-78
2022/03/19 04:18:33;;;;;;;15.95;2.55;;;-0.80;73.70;;;;;;4186758;28;20021;-78
2022/03/19 04:20:34;;;;;;;11.18;2.78;;;-0.80;73.70;;;;;;4209464;28;20051;-77
2022/03/19 04:22:38;;;;;;;8.57;2.15;;;-0.80;73.80;;;;;;4192600;28;20730;-78
2022/03/19 04:24:39;;;;;;;9.80;2.25;;;-0.80;74.10;;;;;;4205171;28;20031;-77
2022/03/19 04:26:40;;;;;;;10.48;2.22;;;-0.90;74.20;;;;;;4209092;28;20032;-77
2022/03/19 04:28:40;;;;;;;12.50;2.10;;;-0.90;74.30;;;;;;4208765;28;20031;-77
2022/03/19 04:30:41;;;;;;;15.00;1.70;;;-0.90;74.30;;;;;;4208254;28;20401;-78
2022/03/19 04:32:51;;;;;;;11.43;2.65;;;-0.90;74.30;;;;;;4193059;28;20029;-77
2022/03/19 04:34:52;;;;;;;7.75;2.03;;;-0.90;74.90;;;;;;4210738;28;20050;-77
2022/03/19 04:36:53;;;;;;;10.05;2.42;;;-0.90;74.40;;;;;;4190530;28;20414;-77
2022/03/19 04:38:53;;;;;;;11.00;2.20;;;-0.90;74.30;;;;;;4208657;28;20119;-77
2022/03/19 04:40:54;;;;;;;11.85;2.08;;;-1.00;74.20;;;;;;4191511;28;20041;-77
2022/03/19 04:42:55;;;;;;;8.85;1.92;;;-1.00;74.10;;;;;;4207237;28;20028;-77
2022/03/19 04:44:55;;;;;;;10.73;2.63;;;-1.00;74.10;;;;;;4190015;28;20043;-77
2022/03/19 04:46:56;;;;;;;15.10;2.30;;;-1.00;74.20;;;;;;4190574;28;20496;-77
2022/03/19 04:48:56;;;;;;;14.05;2.60;;;-1.10;74.10;;;;;;4202227;28;20028;-76
2022/03/19 04:50:57;;;;;;;10.27;2.28;;;-1.10;74.10;;;;;;4202345;28;20066;-77
2022/03/19 04:52:58;;;;;;;19.92;3.00;;;-1.10;74.20;;;;;;4191272;28;20020;-77
2022/03/19 04:55:00;;;;;;;10.00;2.38;;;-1.10;74.40;;;;;;4209128;28;20027;-77
2022/03/19 04:57:02;;;;;;;14.73;2.40;;;-1.10;74.70;;;;;;4206686;28;20020;-77
2022/03/19 04:59:03;;;;;;;14.82;2.20;;;-1.10;75.10;;;;;;4190003;28;20032;-77
2022/03/19 05:01:04;;;;;;;16.20;2.10;;;-1.00;75.40;;;;;;4190088;28;20079;-77
2022/03/19 05:03:05;;;;;;;17.55;2.45;;;-1.00;75.60;;;;;;4192781;28;20026;-77
2022/03/19 05:05:06;;;;;;;9.00;2.38;;;-1.00;75.80;;;;;;4192826;28;20048;-77
2022/03/19 05:07:07;;;;;;;15.88;2.28;;;-0.90;76.20;;;;;;4187517;28;20040;-77
2022/03/19 05:11:26;;;;;;;14.98;2.05;;;-0.80;76.40;;;;;;4193457;28;20072;-77
2022/03/19 05:13:27;;;;;;;16.17;2.10;;;-0.80;76.60;;;;;;4207591;28;20020;-77
2022/03/19 05:15:28;;;;;;;20.02;2.30;;;-0.70;76.70;;;;;;4209490;28;20570;-77
2022/03/19 05:17:28;;;;;;;12.43;2.28;;;-0.70;77.00;;;;;;4210098;28;20134;-77
2022/03/19 05:19:29;;;;;;;16.25;2.75;;;-0.70;77.30;;;;;;4190266;28;20070;-78
2022/03/19 05:21:30;;;;;;;9.05;2.17;;;-0.70;77.30;;;;;;4209263;28;20544;-78
2022/03/19 05:23:31;;;;;;;11.55;2.58;;;-0.70;77.30;;;;;;4188646;28;20036;-77
2022/03/19 05:25:31;;;;;;;24.75;3.42;;;-0.70;77.10;;;;;;4192887;28;20024;-78
2022/03/19 05:27:32;;;;;;;15.27;2.38;;;-0.60;77.10;;;;;;4209265;28;20067;-77
2022/03/19 05:29:33;;;;;;;24.45;2.65;;;-0.60;77.00;;;;;;4174165;28;20110;-77
2022/03/19 05:31:33;;;;;;;21.00;2.55;;;-0.60;77.10;;;;;;4208227;28;20024;-77
2022/03/19 05:35:53;;;;;;;8.50;2.33;;;-0.60;77.20;;;;;;4194172;28;20036;-77
2022/03/19 05:37:54;;;;;;;10.18;2.42;;;-0.50;77.40;;;;;;4205898;28;20501;-77
2022/03/19 05:39:55;;;;;;;14.63;2.42;;;-0.50;77.20;;;;;;4186818;28;20072;-77
2022/03/19 05:41:55;;;;;;;18.38;2.95;;;-0.50;77.30;;;;;;4208787;28;20477;-77
2022/03/19 05:43:56;;;;;;;15.40;2.30;;;-0.50;77.40;;;;;;4206019;28;20024;-77
2022/03/19 05:45:56;;;;;;;20.48;2.55;;;-0.40;77.50;;;;;;4208117;28;20059;-77
2022/03/19 05:47:57;;;;;;;12.32;2.80;;;-0.40;78.30;;;;;;4206348;28;20459;-77
2022/03/19 05:49:58;;;;;;;10.75;2.20;;;-0.40;77.50;;;;;;4205752;28;20039;-77
2022/03/19 05:51:58;;;;;;;16.98;2.47;;;-0.40;77.40;;;;;;4188359;28;20077;-77
2022/03/19 05:53:59;;;;;;;12.23;2.55;;;-0.40;77.30;;;;;;4205139;28;20035;-76
2022/03/19 05:56:00;;;;;;;14.25;2.53;;;-0.40;77.10;;;;;;4207526;28;20070;-77
2022/03/19 05:58:00;;;;;;;20.38;2.40;;;-0.40;77.00;;;;;;4189289;28;20051;-77
2022/03/19 06:00:01;;;;;;;8.10;2.63;;;-0.40;77.10;;;;;;4186882;28;20051;-77
2022/03/19 06:02:02;;;;;;;16.33;2.60;;;-0.40;77.30;;;;;;4209169;28;22241;-77
2022/03/19 06:04:03;;;;;;;12.02;2.75;;;-0.40;77.40;;;;;;4207491;28;20040;-77
2022/03/19 06:06:04;;;;;;;11.77;2.60;;;-0.30;77.70;;;;;;4207090;28;20084;-77
2022/03/19 06:08:05;;;;;;;8.90;2.53;;;-0.30;77.80;;;;;;4208989;28;20370;-77
2022/03/19 06:10:06;;;;;;;20.80;2.90;;;-0.30;77.80;;;;;;4207142;28;20524;-77
2022/03/19 06:12:07;;;;;;;15.15;2.67;;;-0.30;77.80;;;;;;4208691;28;20032;-76
2022/03/19 06:14:08;;;;;;;21.40;2.60;;;-0.20;77.90;;;;;;4209698;28;20028;-76
2022/03/19 06:16:09;;;;;;;15.02;2.78;;;-0.20;78.10;;;;;;4206991;28;20020;-77
2022/03/19 06:18:09;;;;;;;20.27;2.90;;;-0.10;78.40;;;;;;4192011;28;20046;-77
2022/03/19 06:20:10;;;;;;;13.35;2.38;;;0.00;78.80;;;;;;4211813;28;20558;-77
2022/03/19 06:22:11;;;;;;;18.30;2.70;;;0.10;79.30;;;;;;4209126;28;20036;-77
2022/03/19 06:24:12;;;;;;;18.75;3.15;;;0.10;79.50;;;;;;4207621;28;20111;-77
2022/03/19 06:26:13;;;;;;;26.40;3.10;;;0.20;79.70;;;;;;4209218;28;20078;-77
2022/03/19 06:28:14;;;;;;;15.77;2.95;;;0.30;79.90;;;;;;4186841;28;20032;-77
2022/03/19 06:30:15;;;;;;;14.63;2.80;;;0.40;80.00;;;;;;4191028;28;20024;-76
2022/03/19 06:32:20;;;;;;;9.85;2.67;;;0.50;80.20;;;;;;4191438;28;20060;-76
2022/03/19 06:34:21;;;;;;;11.85;2.33;;;0.60;80.40;;;;;;4194087;28;20024;-77
2022/03/19 06:38:40;;;;;;;17.42;2.75;;;0.80;80.70;;;;;;4208855;28;20028;-76
2022/03/19 06:40:41;;;;;;;16.40;3.53;;;0.80;80.80;;;;;;4205253;28;20519;-76
2022/03/19 06:42:42;;;;;;;10.70;2.53;;;0.90;80.80;;;;;;4206841;28;20031;-77
2022/03/19 06:44:42;;;;;;;16.48;3.75;;;1.00;80.90;;;;;;4190766;28;20024;-77
2022/03/19 06:46:43;;;;;;;16.02;2.88;;;1.10;80.90;;;;;;4190814;28;20040;-77
2022/03/19 06:48:46;;;;;;;21.17;3.63;;;1.20;81.00;;;;;;4191340;28;20032;-76
2022/03/19 06:50:47;;;;;;;;;;;1.20;81.10;;;;;;4162849;28;20041;-76
2022/03/19 06:52:47;;;;;;;17.95;3.08;;;1.30;81.40;;;;;;4191521;28;19916;-77
2022/03/19 06:54:48;;;;;;;14.13;2.90;;;1.40;81.30;;;;;;4207987;28;20437;-77
2022/03/19 06:56:49;;;;;;;20.38;2.90;;;1.50;81.20;;;;;;4208218;28;20031;-76
2022/03/19 06:58:50;;;;;;;23.33;3.22;;;1.50;81.40;;;;;;4177104;28;20032;-76
2022/03/19 07:00:50;;;;;;;24.27;3.25;;;1.60;81.60;;;;;;4191925;28;20059;-76
2022/03/19 07:02:52;;;;;;;19.25;3.25;;;1.70;81.90;;;;;;4209954;28;20020;-76
2022/03/19 07:04:53;;;;;;;14.63;3.10;;;1.80;81.90;;;;;;4208835;28;20042;-77
2022/03/19 07:06:53;;;;;;;15.50;2.72;;;1.90;81.90;;;;;;4209363;28;20036;-74
2022/03/19 07:08:54;;;;;;;21.25;3.58;;;2.00;81.90;;;;;;4209656;28;20074;-74
2022/03/19 07:10:55;;;;;;;24.23;4.22;;;2.10;81.90;;;;;;4209257;28;20028;-74
2022/03/19 07:12:56;;;;;;;10.32;3.05;;;2.10;82.10;;;;;;4206254;28;20442;-74
2022/03/19 07:14:56;;;;;;;23.85;4.00;;;2.20;82.00;;;;;;4191401;28;20035;-74
2022/03/19 07:16:57;;;;;;;19.38;3.15;;;2.30;81.90;;;;;;4207791;28;20037;-74
2022/03/19 07:18:58;;;;;;;20.08;3.20;;;2.40;81.90;;;;;;4192876;28;20075;-74
2022/03/19 07:20:58;;;;;;;19.52;3.17;;;2.40;82.00;;;;;;4210369;28;20059;-74
2022/03/19 07:23:03;;;;;;;23.27;3.45;;;2.60;82.00;;;;;;4199981;28;20020;-74
2022/03/19 07:25:04;;;;;;;17.75;3.05;;;2.60;81.90;;;;;;4173324;28;20040;-74
2022/03/19 07:27:06;;;;;;;18.17;3.75;;;2.70;81.90;;;;;;4204141;28;20040;-74
2022/03/19 07:29:06;;;;;;;20.90;3.15;;;2.70;81.80;;;;;;4208480;28;20160;-74
2022/03/19 07:31:07;;;;;;;13.27;2.80;;;2.80;81.90;;;;;;4205135;28;20519;-74
2022/03/19 07:33:08;;;;;;;29.73;4.03;;;2.90;81.80;;;;;;4207253;28;20020;-74
2022/03/19 07:35:09;;;;;;;15.02;3.38;;;3.00;82.10;;;;;;4202228;28;20035;-74
2022/03/19 07:37:10;;;;;;;22.60;2.80;;;3.00;81.90;;;;;;4190681;28;20106;-75
2022/03/19 07:39:10;;;;;;;19.52;3.35;;;3.10;82.20;;;;;;4205572;28;20482;-74
2022/03/19 07:43:31;;;;;;;15.52;3.67;;;3.30;82.40;;;;;;4211435;28;20107;-74
2022/03/19 07:45:31;;;;;;;25.55;3.95;;;3.40;82.20;;;;;;4207700;28;20165;-74
2022/03/19 07:47:33;;;;;;;17.23;3.38;;;3.40;81.90;;;;;;4209605;28;20064;-74
2022/03/19 07:49:33;;;;;;;19.75;3.97;;;3.50;81.60;;;;;;4210014;28;20047;-74
2022/03/19 07:51:34;;;;;;;20.75;3.72;;;3.60;81.30;;;;;;4173324;28;20028;-74
2022/03/19 07:53:37;;;;;;;17.48;3.67;;;3.60;81.00;;;;;;4213459;28;20016;-74
2022/03/19 07:55:37;;;;;;;16.50;3.25;;;3.70;80.80;;;;;;4191589;28;20350;-74
2022/03/19 07:57:38;;;;;;;20.05;4.05;;;3.70;80.60;;;;;;4197908;28;20066;-75
2022/03/19 07:59:38;;;;;;;18.95;3.40;;;3.80;80.40;;;;;;4198717;28;20020;-75
2022/03/19 08:01:39;;;;;;;18.88;3.15;;;3.80;80.20;;;;;;4192843;28;20036;-75
2022/03/19 08:03:40;;;;;;;10.95;3.13;;;3.90;80.30;;;;;;4194069;28;20025;-75
2022/03/19 08:05:41;;;;;;;11.48;2.97;;;3.90;80.10;;;;;;4191613;28;20032;-75
2022/03/19 08:07:42;;;;;;;12.65;3.13;;;4.00;80.10;;;;;;4191408;28;20537;-75
2022/03/19 08:09:42;;;;;;;15.05;3.03;;;4.10;80.20;;;;;;4209361;28;20036;-74
2022/03/19 08:11:43;;;;;;;18.85;3.85;;;4.10;80.20;;;;;;4211515;28;20565;-75
2022/03/19 08:13:44;;;;;;;29.88;3.92;;;4.20;80.10;;;;;;4179305;28;20029;-75
2022/03/19 08:15:44;;;;;;;16.70;3.85;;;4.30;80.10;;;;;;4189506;28;20129;-75
2022/03/19 08:17:45;;;;;;;17.88;3.85;;;4.30;79.90;;;;;;4196355;28;20016;-74
2022/03/19 08:19:46;;;;;;;17.83;3.13;;;4.40;79.60;;;;;;4206275;28;20035;-75
2022/03/19 08:21:46;;;;;;;18.13;3.50;;;4.50;79.50;;;;;;4189409;28;20028;-74
2022/03/19 08:23:47;;;;;;;20.50;3.38;;;4.50;79.20;;;;;;4210257;28;20496;-75
2022/03/19 08:25:48;;;;;;;21.27;3.17;;;4.60;79.00;;;;;;4197230;28;20024;-75
2022/03/19 08:27:53;;;;;;;14.30;3.05;;;4.60;78.90;;;;;;4173897;28;20091;-75
2022/03/19 08:29:54;;;;;;;14.38;2.95;;;4.70;78.70;;;;;;4205428;28;20036;-75
2022/03/19 08:31:54;;;;;;;19.65;3.42;;;4.80;78.30;;;;;;4211731;28;20383;-75
2022/03/19 08:33:56;;;;;;;16.10;3.20;;;4.80;77.80;;;;;;4178110;28;20124;-75
2022/03/19 08:35:57;;;;;;;21.45;3.58;;;4.90;77.30;;;;;;4207960;28;20052;-74
2022/03/19 08:40:18;;;;;;;15.45;2.92;;;5.00;76.40;;;;;;4203232;28;20407;-75
2022/03/19 08:42:19;;;;;;;18.83;3.58;;;5.00;75.90;;;;;;4203480;28;20032;-75
2022/03/19 08:44:19;;;;;;;12.00;2.80;;;5.10;75.70;;;;;;4202783;28;20027;-75
2022/03/19 08:46:20;;;;;;;15.52;3.30;;;5.10;75.50;;;;;;4185989;28;20028;-75
2022/03/19 08:48:21;;;;;;;11.85;3.15;;;5.20;75.30;;;;;;4207583;28;20046;-74
2022/03/19 08:50:22;;;;;;;9.50;2.95;;;5.30;75.20;;;;;;4204169;28;20028;-75
2022/03/19 08:52:23;;;;;;;13.45;2.28;;;5.30;75.00;;;;;;4202022;28;20036;-75
2022/03/19 08:54:23;;;;;;;16.48;3.00;;;5.40;74.70;;;;;;4205007;28;20028;-75
2022/03/19 08:56:24;;;;;;;11.23;2.65;;;5.50;74.50;;;;;;4171150;28;20080;-74
2022/03/19 08:58:25;;;;;;;11.75;2.80;;;5.50;73.90;;;;;;4203281;28;20020;-74
2022/03/19 09:00:25;;;;;;;16.65;2.75;;;5.60;73.20;;;;;;4201621;28;20024;-74
2022/03/19 09:02:26;;;;;;;14.77;3.17;;;5.70;72.60;;;;;;4188419;28;20032;-74
2022/03/19 09:04:26;;;;;;;14.50;2.83;;;5.70;72.80;;;;;;4189312;28;20037;-75
2022/03/19 09:06:27;;;;;;;15.10;3.08;;;5.70;71.70;;;;;;4205591;28;20036;-75
2022/03/19 09:08:28;;;;;;;14.85;2.97;;;5.80;71.20;;;;;;4202999;28;20152;-75
2022/03/19 09:10:28;;;;;;;11.07;2.60;;;5.80;70.90;;;;;;4202753;28;20469;-75
2022/03/19 09:12:29;;;;;;;12.73;2.55;;;5.90;70.70;;;;;;4204866;28;20024;-75
2022/03/19 09:14:29;;;;;;;12.80;2.75;;;5.90;70.10;;;;;;4200031;28;20040;-74
2022/03/19 09:16:30;;;;;;;19.67;3.08;;;5.90;70.10;;;;;;4205641;28;20028;-75
2022/03/19 09:18:31;;;;;;;20.08;3.75;;;6.00;70.10;;;;;;4188565;28;20037;-75
2022/03/19 09:20:32;;;;;;;13.13;3.13;;;6.00;69.60;;;;;;4206113;28;20027;-74
2022/03/19 09:22:32;;;;;;;17.15;3.05;;;6.10;69.30;;;;;;4206464;28;20031;-75
2022/03/19 09:24:33;;;;;;;19.67;3.25;;;6.10;69.20;;;;;;4207349;28;20393;-75
2022/03/19 09:26:34;;;;;;;14.20;2.45;;;6.20;69.00;;;;;;4208972;28;20114;-75
2022/03/19 09:28:34;;;;;;;15.20;3.20;;;6.20;68.80;;;;;;4191944;28;20765;-75
2022/03/19 09:30:35;;;;;;;13.80;2.50;;;6.20;68.70;;;;;;4205295;28;20069;-75
2022/03/19 09:32:35;;;;;;;13.25;2.78;;;6.30;68.70;;;;;;4205791;28;20031;-75
2022/03/19 09:34:36;;;;;;;13.45;3.08;;;6.30;68.00;;;;;;4202676;28;20031;-75
2022/03/19 09:36:37;;;;;;;14.27;2.65;;;6.30;67.40;;;;;;4204515;28;20031;-75
2022/03/19 09:38:39;;;;;;;10.35;3.15;;;6.30;67.30;;;;;;4187571;28;20039;-74
2022/03/19 09:40:41;;;;;;;13.65;2.92;;;6.30;67.40;;;;;;4205829;28;20082;-75
2022/03/19 09:42:51;;;;;;;19.73;3.50;;;6.30;67.50;;;;;;4202515;28;20115;-74
2022/03/19 09:44:52;;;;;;;12.80;2.53;;;6.40;67.60;;;;;;4187866;28;20088;-75
2022/03/19 09:46:53;;;;;;;10.70;2.50;;;6.40;67.80;;;;;;4190281;28;20291;-75
2022/03/19 09:48:54;;;;;;;16.75;3.40;;;6.40;67.90;;;;;;4201640;28;20115;-75
2022/03/19 09:50:55;;;;;;;11.43;2.35;;;6.50;67.70;;;;;;4188232;28;20056;-75
2022/03/19 09:52:57;;;;;;;13.98;2.97;;;6.50;67.40;;;;;;4187002;28;20035;-75
2022/03/19 09:54:59;;;;;;;15.48;2.85;;;6.50;66.10;;;;;;4203082;28;20048;-75
2022/03/19 09:56:59;;;;;;;15.77;2.30;;;6.50;65.20;;;;;;4188100;28;20033;-74
2022/03/19 09:59:00;;;;;;;14.80;2.70;;;6.50;65.20;;;;;;4199307;28;20020;-75
2022/03/19 10:01:05;;;;;;;13.45;2.35;;;6.50;65.50;;;;;;4203335;28;20032;-75
2022/03/19 10:03:09;;;;;;;12.18;3.00;;;6.50;65.70;;;;;;4187884;28;20032;-75
2022/03/19 10:23:45;;;;;;;15.82;3.40;;;5.40;66.80;;;;;;4190709;27;20126;-77
2022/03/19 10:25:46;;;;;;;12.32;2.65;;;5.30;68.40;;;;;;4198371;28;20029;-76
2022/03/19 10:27:47;;;;;;;14.35;2.95;;;5.30;69.50;;;;;;4194694;28;20867;-76
2022/03/19 10:29:47;;;;;;;11.10;2.90;;;5.40;69.60;;;;;;4195673;28;20074;-76
2022/03/19 10:31:50;;;;;;;14.50;3.17;;;5.50;69.70;;;;;;4198256;28;20024;-77
2022/03/19 10:33:50;;;;;;;14.82;3.00;;;5.70;69.40;;;;;;4192665;28;20127;-76
2022/03/19 10:35:51;;;;;;;14.85;3.03;;;5.80;69.20;;;;;;4177158;28;20067;-76
2022/03/19 10:37:51;;;;;;;12.43;2.78;;;5.90;69.20;;;;;;4194561;28;20033;-77
2022/03/19 10:39:52;;;;;;;18.63;3.28;;;6.00;69.00;;;;;;4176218;28;20033;-77
2022/03/19 10:41:56;;;;;;;9.95;2.20;;;6.10;69.00;;;;;;4193771;28;20447;-77
2022/03/19 10:43:57;;;;;;;11.45;2.70;;;6.20;67.70;;;;;;4177635;28;20573;-77
2022/03/19 10:45:58;;;;;;;18.05;2.88;;;6.30;67.60;;;;;;4166613;28;20052;-77
2022/03/19 10:47:59;;;;;;;12.15;2.67;;;6.30;67.30;;;;;;4181608;28;20061;-77
2022/03/19 10:50:00;;;;;;;17.65;3.17;;;6.40;67.10;;;;;;4180285;28;20494;-76
2022/03/19 10:52:05;;;;;;;8.95;2.40;;;6.40;66.80;;;;;;4197275;28;20024;-76
2022/03/19 10:54:06;;;;;;;10.20;2.30;;;6.50;66.60;;;;;;4195406;28;20496;-76
2022/03/19 10:56:07;;;;;;;12.77;2.70;;;6.60;66.30;;;;;;4181243;28;20025;-76
2022/03/19 10:58:08;;;;;;;13.13;2.53;;;6.60;66.00;;;;;;4178685;28;20043;-76
2022/03/19 11:00:09;;;;;;;16.92;2.67;;;6.60;65.80;;;;;;4193104;28;20617;-76
2022/03/19 11:02:11;;;;;;;16.02;3.13;;;6.60;65.40;;;;;;4194779;28;20043;-76
2022/03/19 11:04:12;;;;;;;12.52;2.95;;;6.60;65.20;;;;;;4194101;28;20040;-75